Osseo, Minnesota
Current Conditions -  °F | °C
As of 6:53 PM on Friday 24 Oct 2014 (Local Time) from KMIC Reporting Station
Clear Clear  
Wind Chill: 17°   Ceiling: Unl
Heat Index: 17°   Visibility: 10mi
Dew Point: 12°   Wind: 3mph
Humidity: 70%   Direction: 200°SSW
Pressure: 29.83"   Gusts: NA
Location:  45.12°N, 93.4°W
Report Text: KMIC 242353Z 20003KT 10SM CLR 17/12 A2983 RMK AO2 SLP104 T01720117 10206 20172 53005
Loading
Personal Weather Stations






























Interactive Weather Map
Tropical Storm Tracking
New forecast layout! Learn more

10-Day Weather Forecast

Advertisements
Track Severe Weather on mobile